createdAt,value
2023-03-22T00:00:00.293Z,0.00
2023-03-22T00:02:27.152Z,0.15
2023-03-22T00:04:54.964Z,0.00
2023-03-22T00:07:22.069Z,0.00
2023-03-22T00:09:48.773Z,0.00
2023-03-22T00:12:15.574Z,0.00
2023-03-22T00:14:42.911Z,0.00
2023-03-22T00:17:09.741Z,0.00
2023-03-22T00:19:37.374Z,0.00
2023-03-22T00:22:06.134Z,0.00
2023-03-22T00:24:33.131Z,0.00
2023-03-22T00:27:00.972Z,0.00
2023-03-22T00:29:27.831Z,0.00
2023-03-22T00:31:56.025Z,0.00
2023-03-22T00:37:09.152Z,0.00
2023-03-22T00:39:35.932Z,0.00
2023-03-22T00:42:06.212Z,0.00
2023-03-22T00:44:33.125Z,0.00
2023-03-22T00:47:00.100Z,0.00
2023-03-22T00:49:27.257Z,0.00
2023-03-22T00:51:54.709Z,0.00
2023-03-22T00:54:59.220Z,0.00
2023-03-22T00:57:26.056Z,0.00
2023-03-22T00:59:53.889Z,0.00
2023-03-22T01:02:20.650Z,0.00
2023-03-22T01:04:50.274Z,0.00
2023-03-22T01:07:17.946Z,0.00
2023-03-22T01:09:48.849Z,0.00
2023-03-22T01:12:16.660Z,0.00
2023-03-22T01:14:43.448Z,0.00
2023-03-22T01:17:10.891Z,0.08
2023-03-22T01:19:38.295Z,0.00
2023-03-22T01:22:06.402Z,0.00
2023-03-22T01:24:33.769Z,0.00
2023-03-22T01:27:00.783Z,0.00
2023-03-22T01:29:27.635Z,0.00
2023-03-22T01:31:54.364Z,0.00
2023-03-22T01:34:22.327Z,0.00
2023-03-22T01:36:50.301Z,0.00
2023-03-22T01:39:17.153Z,0.00
2023-03-22T01:41:44.014Z,0.00
2023-03-22T01:44:16.202Z,0.00
2023-03-22T01:46:45.351Z,0.00
2023-03-22T01:49:17.202Z,0.00
2023-03-22T01:51:46.484Z,0.00
2023-03-22T01:54:24.509Z,0.00
2023-03-22T01:56:51.599Z,0.00
2023-03-22T01:59:19.339Z,0.00
2023-03-22T02:01:47.081Z,0.00
2023-03-22T02:04:34.280Z,0.00
2023-03-22T02:07:10.224Z,0.00
2023-03-22T02:09:42.330Z,0.00
2023-03-22T02:12:24.038Z,0.00
2023-03-22T02:15:09.840Z,0.00
2023-03-22T02:18:06.496Z,0.00
2023-03-22T02:20:53.043Z,0.00
2023-03-22T02:24:03.695Z,0.00
2023-03-22T02:26:54.491Z,0.00
2023-03-22T02:29:46.708Z,0.00
2023-03-22T02:32:39.858Z,0.00
2023-03-22T02:35:39.047Z,0.00
2023-03-22T02:38:26.025Z,0.00
2023-03-22T02:41:35.826Z,0.00
2023-03-22T02:44:05.905Z,0.00
2023-03-22T02:46:46.518Z,0.00
2023-03-22T02:49:33.702Z,0.00
2023-03-22T02:52:23.318Z,0.00
2023-03-22T02:55:04.937Z,2.72
2023-03-22T02:57:44.598Z,0.00
2023-03-22T03:00:14.138Z,0.00
2023-03-22T03:02:48.857Z,0.00
2023-03-22T03:05:52.736Z,0.00
2023-03-22T03:08:22.010Z,0.00
2023-03-22T03:10:49.423Z,0.00
2023-03-22T03:13:17.773Z,0.00
2023-03-22T03:15:53.868Z,0.00
2023-03-22T03:18:32.695Z,0.00
2023-03-22T03:21:05.626Z,0.10
2023-03-22T03:24:02.043Z,0.00
2023-03-22T03:26:43.821Z,0.00
2023-03-22T03:29:27.482Z,0.00
2023-03-22T03:32:06.365Z,0.00
2023-03-22T03:34:49.830Z,0.00
2023-03-22T03:37:21.870Z,0.00
2023-03-22T03:39:57.137Z,0.00
2023-03-22T03:44:51.945Z,0.00
2023-03-22T03:47:19.350Z,0.00
2023-03-22T03:49:46.231Z,0.00
2023-03-22T03:52:13.382Z,0.00
2023-03-22T03:54:41.037Z,0.00
2023-03-22T03:57:07.891Z,0.00
2023-03-22T03:59:34.616Z,0.00
2023-03-22T04:02:01.374Z,0.00
2023-03-22T04:04:29.506Z,0.00
2023-03-22T04:06:58.790Z,0.00
2023-03-22T04:09:28.654Z,0.00
2023-03-22T04:11:56.538Z,2.30
2023-03-22T04:14:24.650Z,0.00
2023-03-22T04:16:51.797Z,0.00
2023-03-22T04:19:18.634Z,0.00
2023-03-22T04:21:45.898Z,0.00
2023-03-22T04:24:13.290Z,0.00
2023-03-22T04:26:40.458Z,0.00
2023-03-22T04:29:07.944Z,0.00
2023-03-22T04:31:36.786Z,0.00
2023-03-22T04:34:05.762Z,0.00
2023-03-22T04:36:36.500Z,0.00
2023-03-22T04:39:05.858Z,0.00
2023-03-22T04:41:33.745Z,0.00
2023-03-22T04:44:03.459Z,0.00
2023-03-22T04:46:31.726Z,0.00
2023-03-22T04:48:59.001Z,0.00
2023-03-22T04:51:27.131Z,0.00
2023-03-22T04:53:54.446Z,0.00
2023-03-22T04:56:21.870Z,0.00
2023-03-22T04:58:48.712Z,0.00
2023-03-22T05:01:17.299Z,0.00
2023-03-22T05:03:48.320Z,0.00
2023-03-22T05:06:15.561Z,0.00
2023-03-22T05:08:42.992Z,0.00
2023-03-22T05:11:17.766Z,0.00
2023-03-22T05:13:44.539Z,0.00
2023-03-22T05:16:12.124Z,0.00
2023-03-22T05:18:42.426Z,0.00
2023-03-22T05:21:17.857Z,0.00
2023-03-22T05:26:15.525Z,0.00
2023-03-22T05:28:43.686Z,0.00
2023-03-22T05:31:11.806Z,0.00
2023-03-22T05:33:39.159Z,0.00
2023-03-22T05:36:06.326Z,0.00
2023-03-22T05:38:33.189Z,0.00
2023-03-22T05:40:59.937Z,0.00
2023-03-22T05:43:26.718Z,0.00
2023-03-22T05:45:53.531Z,0.00
2023-03-22T05:48:20.444Z,0.00
2023-03-22T05:50:47.389Z,0.00
2023-03-22T05:53:14.165Z,0.00
2023-03-22T05:55:40.966Z,0.00
2023-03-22T05:58:08.401Z,0.00
2023-03-22T06:00:35.773Z,0.00
2023-03-22T06:03:03.871Z,0.00
2023-03-22T06:05:32.027Z,0.00
2023-03-22T06:07:59.548Z,0.00
2023-03-22T06:10:26.968Z,0.00
2023-03-22T06:12:54.320Z,0.00
2023-03-22T06:15:21.433Z,0.00
2023-03-22T06:17:48.812Z,0.00
2023-03-22T06:20:15.993Z,0.00
2023-03-22T06:22:42.952Z,0.00
2023-03-22T06:25:11.037Z,0.00
2023-03-22T06:27:37.863Z,0.00
2023-03-22T06:30:05.399Z,0.00
2023-03-22T06:32:32.153Z,0.00
2023-03-22T06:34:59.012Z,0.00
2023-03-22T06:37:26.269Z,0.00
2023-03-22T06:39:53.127Z,0.00
2023-03-22T06:42:20.101Z,0.00
2023-03-22T06:44:47.150Z,0.00
2023-03-22T06:47:13.995Z,0.00
2023-03-22T06:49:41.045Z,0.00
2023-03-22T06:52:08.050Z,0.00
2023-03-22T06:54:34.999Z,0.00
2023-03-22T06:57:01.766Z,0.00
2023-03-22T06:59:28.777Z,0.00
2023-03-22T07:01:55.784Z,0.00
2023-03-22T07:04:22.924Z,0.10
2023-03-22T07:06:49.734Z,0.00
2023-03-22T07:09:16.604Z,0.00
2023-03-22T07:11:43.736Z,0.00
2023-03-22T07:14:10.671Z,0.00
2023-03-22T07:16:37.434Z,0.00
2023-03-22T07:19:04.312Z,0.00
2023-03-22T07:21:31.174Z,0.00
2023-03-22T07:23:58.153Z,0.00
2023-03-22T07:26:26.228Z,0.00
2023-03-22T07:28:53.444Z,0.00
2023-03-22T07:31:20.286Z,0.00
2023-03-22T07:33:48.275Z,0.00
2023-03-22T07:36:15.438Z,0.00
2023-03-22T07:38:42.209Z,0.00
2023-03-22T07:41:08.968Z,0.00
2023-03-22T07:43:50.846Z,0.00
2023-03-22T07:46:19.545Z,0.00
2023-03-22T07:48:46.387Z,0.00
2023-03-22T07:51:13.207Z,0.00
2023-03-22T07:53:40.098Z,0.00
2023-03-22T07:56:07.421Z,0.00
2023-03-22T07:58:34.777Z,0.00
2023-03-22T08:01:08.941Z,0.00
2023-03-22T08:03:36.581Z,0.00
2023-03-22T08:06:07.551Z,0.00
2023-03-22T08:08:36.855Z,0.00
2023-03-22T08:11:07.450Z,0.00
2023-03-22T08:13:34.467Z,0.00
2023-03-22T08:16:01.696Z,0.10
2023-03-22T08:18:28.464Z,0.00
2023-03-22T08:21:00.450Z,0.00
2023-03-22T08:23:40.408Z,0.00
2023-03-22T08:29:42.118Z,0.00
2023-03-22T08:32:09.020Z,0.00
2023-03-22T08:34:40.403Z,0.00
2023-03-22T08:37:08.271Z,0.00
2023-03-22T08:39:35.351Z,0.00
2023-03-22T08:42:02.154Z,0.00
2023-03-22T08:44:29.000Z,0.00
2023-03-22T08:46:55.777Z,0.00
2023-03-22T08:49:23.194Z,0.00
2023-03-22T08:51:50.296Z,0.00
2023-03-22T08:54:17.044Z,0.00
2023-03-22T08:56:43.829Z,0.00
2023-03-22T08:59:10.808Z,0.00
2023-03-22T09:01:37.967Z,0.00
2023-03-22T09:04:05.751Z,0.00
2023-03-22T09:06:32.793Z,0.00
2023-03-22T09:09:00.043Z,0.00
2023-03-22T09:11:27.703Z,0.00
2023-03-22T09:13:54.458Z,0.00
2023-03-22T09:16:21.337Z,0.00
2023-03-22T09:18:48.174Z,0.00
2023-03-22T09:21:14.935Z,0.00
2023-03-22T09:23:42.413Z,0.00
2023-03-22T09:26:10.218Z,0.00
2023-03-22T09:28:38.245Z,0.00
2023-03-22T09:31:09.389Z,0.10
2023-03-22T09:33:37.765Z,0.00
2023-03-22T09:36:04.895Z,0.00
2023-03-22T09:38:33.844Z,0.00
2023-03-22T09:41:18.318Z,0.00
2023-03-22T09:44:08.188Z,0.00
2023-03-22T09:46:41.813Z,0.00
2023-03-22T09:49:16.970Z,0.00
2023-03-22T09:51:44.928Z,0.00
2023-03-22T09:54:18.566Z,0.00
2023-03-22T09:57:09.878Z,0.00
2023-03-22T09:59:48.459Z,0.00
2023-03-22T10:02:51.208Z,0.00
2023-03-22T10:05:45.254Z,0.00
2023-03-22T10:08:21.041Z,0.00
2023-03-22T10:10:48.367Z,0.00
2023-03-22T10:13:39.629Z,0.00
2023-03-22T10:16:11.789Z,0.00
2023-03-22T10:18:45.312Z,0.20
2023-03-22T10:21:14.404Z,0.00
2023-03-22T10:23:59.127Z,0.00
2023-03-22T10:26:39.339Z,0.00
2023-03-22T10:29:24.358Z,0.00
2023-03-22T10:31:51.243Z,0.00
2023-03-22T10:34:33.640Z,0.00
2023-03-22T10:37:04.048Z,0.00
2023-03-22T10:39:39.380Z,0.00
2023-03-22T10:42:12.780Z,0.00
2023-03-22T10:44:47.965Z,0.00
2023-03-22T10:47:18.262Z,0.00
2023-03-22T10:49:54.983Z,0.00
2023-03-22T10:52:37.033Z,0.00
2023-03-22T10:58:40.728Z,0.00
2023-03-22T11:01:24.224Z,0.10
2023-03-22T11:03:55.004Z,0.00
2023-03-22T11:06:26.425Z,0.00
2023-03-22T11:09:09.004Z,0.00
2023-03-22T11:11:39.733Z,0.00
2023-03-22T11:14:06.552Z,0.00
2023-03-22T11:16:47.434Z,0.00
2023-03-22T11:19:22.400Z,0.00
2023-03-22T11:21:51.401Z,0.00
2023-03-22T11:24:19.347Z,0.00
2023-03-22T11:27:22.424Z,0.00
2023-03-22T11:29:54.514Z,0.00
2023-03-22T11:32:30.678Z,0.00
2023-03-22T11:35:05.069Z,0.00
2023-03-22T11:37:32.062Z,0.00
2023-03-22T11:40:01.927Z,0.00
2023-03-22T11:42:28.928Z,0.00
2023-03-22T11:44:57.074Z,0.00
2023-03-22T11:47:27.191Z,0.00
2023-03-22T11:49:57.108Z,0.00
2023-03-22T11:52:26.348Z,0.00
2023-03-22T11:54:54.948Z,0.00
2023-03-22T12:00:34.835Z,0.00
2023-03-22T12:03:52.770Z,0.00
2023-03-22T12:06:34.994Z,0.00
2023-03-22T12:12:53.048Z,0.00
2023-03-22T12:15:40.679Z,0.00
2023-03-22T12:18:29.926Z,0.00
2023-03-22T12:21:01.321Z,0.00
2023-03-22T12:24:16.635Z,0.00
2023-03-22T12:30:31.290Z,0.00
2023-03-22T12:33:09.877Z,0.00
2023-03-22T12:35:42.463Z,0.00
2023-03-22T12:38:33.823Z,0.00
2023-03-22T12:41:05.594Z,0.00
2023-03-22T12:43:44.419Z,0.00
2023-03-22T12:46:17.944Z,0.00
2023-03-22T12:49:05.289Z,0.00
2023-03-22T12:51:32.165Z,0.00
2023-03-22T12:54:01.808Z,0.00
2023-03-22T12:56:36.027Z,0.00
2023-03-22T12:59:06.585Z,0.00
2023-03-22T13:01:58.875Z,0.00
2023-03-22T13:04:28.082Z,0.00
2023-03-22T13:06:57.657Z,0.00
2023-03-22T13:09:40.837Z,0.00
2023-03-22T13:12:16.811Z,0.00
2023-03-22T13:15:03.677Z,0.00
2023-03-22T13:17:33.425Z,0.00
2023-03-22T13:20:23.743Z,0.00
2023-03-22T13:22:50.676Z,0.00
2023-03-22T13:25:18.903Z,0.00
2023-03-22T13:27:45.739Z,0.00
2023-03-22T13:30:21.994Z,0.00
2023-03-22T13:33:03.497Z,0.00
2023-03-22T13:35:42.821Z,0.50
2023-03-22T13:38:21.202Z,0.00
2023-03-22T13:41:20.795Z,0.00
2023-03-22T13:43:50.133Z,0.08
2023-03-22T13:46:22.768Z,0.00
2023-03-22T13:51:43.923Z,0.40
2023-03-22T13:58:15.627Z,15.13
2023-03-22T14:10:47.748Z,14.57
2023-03-22T14:13:36.074Z,11.95
2023-03-22T14:16:19.205Z,9.00
2023-03-22T14:18:48.536Z,10.73
2023-03-22T14:21:23.536Z,10.13
